createdAt,value
2022-12-09T00:01:15.000Z,88.50
2022-12-09T00:03:43.866Z,88.33
2022-12-09T00:06:16.520Z,88.65
2022-12-09T00:08:45.473Z,88.63
2022-12-09T00:11:13.865Z,88.98
2022-12-09T00:13:42.638Z,89.75
2022-12-09T00:16:15.201Z,89.50
2022-12-09T00:18:43.968Z,89.15
2022-12-09T00:21:13.557Z,89.41
2022-12-09T00:23:42.407Z,89.55
2022-12-09T00:26:10.833Z,89.23
2022-12-09T00:28:39.075Z,89.80
2022-12-09T00:31:08.456Z,90.49
2022-12-09T00:33:37.861Z,88.92
2022-12-09T00:36:07.943Z,88.90
2022-12-09T00:38:36.256Z,89.09
2022-12-09T00:41:04.511Z,88.84
2022-12-09T00:43:36.055Z,88.93
2022-12-09T00:46:04.727Z,89.14
2022-12-09T00:48:34.622Z,88.98
2022-12-09T00:51:04.279Z,89.30
2022-12-09T00:53:33.330Z,89.75
2022-12-09T00:56:01.387Z,90.45
2022-12-09T00:58:29.752Z,90.40
2022-12-09T01:00:58.132Z,91.35
2022-12-09T01:03:26.828Z,90.47
2022-12-09T01:05:55.451Z,91.09
2022-12-09T01:08:25.442Z,90.26
2022-12-09T01:10:54.132Z,90.24
2022-12-09T01:13:22.813Z,89.66
2022-12-09T01:15:50.966Z,89.41
2022-12-09T01:18:19.658Z,88.42
2022-12-09T01:20:57.712Z,88.75
2022-12-09T01:23:27.413Z,89.38
2022-12-09T01:25:55.528Z,88.96
2022-12-09T01:28:24.145Z,88.56
2022-12-09T01:30:52.381Z,89.22
2022-12-09T01:33:20.824Z,88.28
2022-12-09T01:35:48.758Z,88.86
2022-12-09T01:38:17.201Z,89.56
2022-12-09T01:40:48.362Z,89.33
2022-12-09T01:43:19.243Z,89.66
2022-12-09T01:45:47.864Z,89.12
2022-12-09T01:48:18.667Z,88.70
2022-12-09T01:50:51.864Z,89.87
2022-12-09T01:53:23.329Z,90.85
2022-12-09T01:55:54.955Z,89.98
2022-12-09T01:58:23.534Z,89.60
2022-12-09T02:00:52.151Z,89.24
2022-12-09T02:03:21.022Z,89.59
2022-12-09T02:05:50.468Z,88.81
2022-12-09T02:08:20.742Z,89.21
2022-12-09T02:10:57.322Z,89.12
2022-12-09T02:13:33.150Z,89.72
2022-12-09T02:16:07.546Z,90.13
2022-12-09T02:18:44.408Z,90.14
2022-12-09T02:21:17.649Z,90.06
2022-12-09T02:23:52.573Z,90.30
2022-12-09T02:26:29.042Z,89.85
2022-12-09T02:29:22.533Z,90.20
2022-12-09T02:32:19.067Z,88.93
2022-12-09T02:34:57.134Z,89.39
2022-12-09T02:37:31.953Z,89.19
2022-12-09T02:40:04.045Z,90.28
2022-12-09T02:42:37.300Z,90.26
2022-12-09T02:45:08.899Z,89.50
2022-12-09T02:47:42.515Z,89.88
2022-12-09T02:50:16.177Z,89.21
2022-12-09T02:52:48.450Z,90.40
2022-12-09T02:55:19.912Z,89.16
2022-12-09T02:57:52.773Z,90.25
2022-12-09T03:00:22.232Z,89.67
2022-12-09T03:02:56.957Z,90.19
2022-12-09T03:05:38.800Z,89.84
2022-12-09T03:08:18.064Z,89.55
2022-12-09T03:10:54.880Z,89.93
2022-12-09T03:13:37.146Z,90.28
2022-12-09T03:16:12.472Z,91.33
2022-12-09T03:18:45.351Z,90.42
2022-12-09T03:21:18.281Z,89.02
2022-12-09T03:23:47.951Z,89.58
2022-12-09T03:26:17.457Z,88.83
2022-12-09T03:28:50.952Z,90.07
2022-12-09T03:31:23.119Z,89.89
2022-12-09T03:33:55.790Z,89.80
2022-12-09T03:36:30.115Z,89.43
2022-12-09T03:38:59.705Z,89.53
2022-12-09T03:41:30.476Z,89.99
2022-12-09T03:44:03.592Z,88.61
2022-12-09T03:46:32.433Z,89.95
2022-12-09T03:49:01.206Z,88.41
2022-12-09T03:51:36.920Z,88.78
2022-12-09T03:54:11.334Z,88.50
2022-12-09T03:56:42.961Z,88.75
2022-12-09T03:59:13.775Z,89.05
2022-12-09T04:01:44.421Z,88.21
2022-12-09T04:04:14.025Z,88.54
2022-12-09T04:06:44.799Z,89.54
2022-12-09T04:09:14.030Z,89.90
2022-12-09T04:11:42.318Z,89.75
2022-12-09T04:14:15.549Z,89.04
2022-12-09T04:16:44.535Z,88.93
2022-12-09T04:19:13.139Z,89.07
2022-12-09T04:21:41.191Z,88.43
2022-12-09T04:24:11.507Z,89.27
2022-12-09T04:26:39.662Z,89.08
2022-12-09T04:29:08.282Z,89.38
2022-12-09T04:31:36.634Z,89.54
2022-12-09T04:34:09.579Z,89.60
2022-12-09T04:36:38.789Z,89.58
2022-12-09T04:39:08.264Z,90.25
2022-12-09T04:41:38.395Z,89.48
2022-12-09T04:44:07.369Z,89.58
2022-12-09T04:46:35.834Z,88.86
2022-12-09T04:49:04.639Z,89.71
2022-12-09T04:51:39.231Z,89.70
2022-12-09T04:54:09.107Z,90.33
2022-12-09T04:56:38.452Z,89.15
2022-12-09T04:59:07.363Z,89.06
2022-12-09T05:01:36.218Z,91.70
2022-12-09T05:04:05.624Z,91.68
2022-12-09T05:06:34.439Z,90.02
2022-12-09T05:09:04.415Z,88.90
2022-12-09T05:11:32.984Z,89.49
2022-12-09T05:14:03.011Z,89.34
2022-12-09T05:16:31.750Z,90.30
2022-12-09T05:19:01.784Z,89.21
2022-12-09T05:21:30.271Z,89.28
2022-12-09T05:23:58.974Z,88.96
2022-12-09T05:26:27.229Z,89.42
2022-12-09T05:28:56.092Z,89.48
2022-12-09T05:31:26.050Z,88.26
2022-12-09T05:33:54.910Z,88.46
2022-12-09T05:36:27.780Z,88.53
2022-12-09T05:38:57.384Z,88.13
2022-12-09T05:41:26.226Z,87.88
2022-12-09T05:43:55.071Z,88.11
2022-12-09T05:46:23.835Z,87.64
2022-12-09T05:48:54.046Z,87.09
2022-12-09T05:51:27.172Z,88.00
2022-12-09T05:53:57.507Z,88.75
2022-12-09T05:56:27.594Z,88.28
2022-12-09T05:58:56.664Z,87.71
2022-12-09T06:01:26.506Z,87.74
2022-12-09T06:03:57.000Z,87.56
2022-12-09T06:06:28.194Z,86.76
2022-12-09T06:08:58.775Z,86.98
2022-12-09T06:11:27.910Z,87.02
2022-12-09T06:13:57.706Z,86.77
2022-12-09T06:16:26.490Z,87.25
2022-12-09T06:18:57.679Z,87.54
2022-12-09T06:21:26.119Z,87.28
2022-12-09T06:23:55.610Z,86.81
2022-12-09T06:26:26.184Z,87.21
2022-12-09T06:28:56.346Z,87.06
2022-12-09T06:31:25.931Z,87.74
2022-12-09T06:33:58.094Z,87.22
2022-12-09T06:36:31.206Z,87.08
2022-12-09T06:39:09.732Z,87.35
2022-12-09T06:41:40.013Z,88.17
2022-12-09T06:44:09.166Z,87.71
2022-12-09T06:46:38.514Z,88.01
2022-12-09T06:49:08.715Z,87.81
2022-12-09T06:51:38.216Z,87.21
2022-12-09T06:54:07.807Z,87.34
2022-12-09T06:56:36.731Z,86.15
2022-12-09T06:59:09.320Z,87.05
2022-12-09T07:01:39.769Z,87.46
2022-12-09T07:04:09.394Z,87.49
2022-12-09T07:06:42.678Z,88.31
2022-12-09T07:09:14.766Z,88.19
2022-12-09T07:11:46.499Z,88.42
2022-12-09T07:14:16.767Z,87.89
2022-12-09T07:16:45.521Z,88.09
2022-12-09T07:19:20.617Z,87.76
2022-12-09T07:21:53.245Z,87.53
2022-12-09T07:24:22.591Z,88.43
2022-12-09T07:26:55.123Z,87.71
2022-12-09T07:29:24.131Z,87.86
2022-12-09T07:31:55.685Z,86.99
2022-12-09T07:34:27.678Z,86.92
2022-12-09T07:36:58.598Z,87.19
2022-12-09T07:39:32.357Z,87.04
2022-12-09T07:42:01.514Z,86.27
2022-12-09T07:44:31.873Z,86.44
2022-12-09T07:47:02.572Z,87.25
2022-12-09T07:49:34.210Z,86.07
2022-12-09T07:52:33.766Z,86.77
2022-12-09T07:55:06.875Z,87.63
2022-12-09T07:57:38.788Z,87.92
2022-12-09T08:00:29.736Z,87.11
2022-12-09T08:03:00.138Z,87.23
2022-12-09T08:05:32.043Z,86.78
2022-12-09T08:08:29.248Z,87.08
2022-12-09T08:11:00.880Z,86.51
2022-12-09T08:13:31.083Z,87.26
2022-12-09T08:16:05.207Z,86.71
2022-12-09T08:18:35.702Z,86.49
2022-12-09T08:21:06.971Z,85.69
2022-12-09T08:23:38.934Z,86.30
2022-12-09T08:26:08.301Z,86.04
2022-12-09T08:28:38.758Z,86.00
2022-12-09T08:31:13.648Z,86.30
2022-12-09T08:33:43.521Z,86.67
2022-12-09T08:36:16.026Z,85.32
2022-12-09T08:38:48.089Z,86.54
2022-12-09T08:41:19.465Z,85.36
2022-12-09T08:43:49.177Z,85.80
2022-12-09T08:46:21.149Z,85.42
2022-12-09T08:48:51.830Z,84.66
2022-12-09T08:51:20.931Z,84.33
2022-12-09T08:53:52.934Z,84.62
2022-12-09T08:56:25.120Z,82.68
2022-12-09T08:58:54.769Z,83.46
2022-12-09T09:01:25.898Z,84.67
2022-12-09T09:03:55.015Z,83.25
2022-12-09T09:06:25.026Z,82.18
2022-12-09T09:08:55.667Z,82.10
2022-12-09T09:11:27.012Z,81.74
2022-12-09T09:13:56.969Z,82.98
2022-12-09T09:16:28.441Z,83.33
2022-12-09T09:18:58.330Z,82.64
2022-12-09T09:21:31.280Z,83.51
2022-12-09T09:24:03.892Z,84.57
2022-12-09T09:26:34.415Z,83.64
2022-12-09T09:29:04.151Z,83.49
2022-12-09T09:31:33.475Z,82.60
2022-12-09T09:34:05.768Z,83.55
2022-12-09T09:36:35.516Z,84.24
2022-12-09T09:39:06.851Z,81.51
2022-12-09T09:41:47.498Z,83.57
2022-12-09T09:44:23.985Z,81.50
2022-12-09T09:46:55.418Z,83.37
2022-12-09T09:49:33.708Z,82.00
2022-12-09T09:52:08.662Z,80.98
2022-12-09T09:54:40.831Z,80.54
2022-12-09T09:57:17.289Z,81.90
2022-12-09T10:00:05.086Z,78.96
2022-12-09T10:02:56.932Z,76.41
2022-12-09T10:05:35.757Z,76.32
2022-12-09T10:08:24.225Z,76.67
2022-12-09T10:11:05.806Z,76.47
2022-12-09T10:13:48.423Z,76.83
2022-12-09T10:16:23.870Z,78.19
2022-12-09T10:19:07.971Z,80.21
2022-12-09T10:21:42.672Z,78.31
2022-12-09T10:24:24.526Z,79.64
2022-12-09T10:27:13.308Z,79.26
2022-12-09T10:29:50.701Z,75.64
2022-12-09T10:32:21.581Z,73.39
2022-12-09T10:34:50.638Z,73.66
2022-12-09T10:37:32.238Z,72.43
2022-12-09T10:40:14.472Z,72.14
2022-12-09T10:43:05.040Z,73.76
2022-12-09T10:46:00.018Z,73.57
2022-12-09T10:48:33.084Z,73.45
2022-12-09T10:51:05.107Z,75.90
2022-12-09T10:53:36.129Z,73.96
2022-12-09T10:56:05.750Z,75.66
2022-12-09T10:58:36.587Z,75.09
2022-12-09T11:01:11.134Z,74.64
2022-12-09T11:03:43.325Z,76.16
2022-12-09T11:06:27.323Z,75.89
2022-12-09T11:08:59.191Z,75.97
2022-12-09T11:11:44.664Z,76.84
2022-12-09T11:14:28.694Z,76.29
2022-12-09T11:17:01.212Z,74.25
2022-12-09T11:19:37.010Z,74.65
2022-12-09T11:22:23.112Z,74.33
2022-12-09T11:24:54.806Z,73.27
2022-12-09T11:27:31.217Z,74.24
2022-12-09T11:30:16.086Z,76.10
2022-12-09T11:33:09.795Z,74.87
2022-12-09T11:35:52.859Z,73.80
2022-12-09T11:38:42.509Z,71.65
2022-12-09T11:41:39.006Z,73.70
2022-12-09T11:44:22.278Z,73.14
2022-12-09T11:47:01.970Z,71.99
2022-12-09T11:49:35.713Z,71.74
2022-12-09T11:52:09.754Z,71.17
2022-12-09T11:54:46.303Z,70.98
2022-12-09T11:57:29.344Z,72.21
2022-12-09T12:00:04.707Z,71.73
2022-12-09T12:02:40.336Z,72.18
2022-12-09T12:05:25.047Z,72.54
2022-12-09T12:08:06.798Z,72.83
2022-12-09T12:10:39.169Z,72.31
2022-12-09T12:13:16.097Z,74.86
2022-12-09T12:15:50.032Z,72.99
2022-12-09T12:18:25.020Z,73.65
2022-12-09T12:21:20.604Z,72.90
2022-12-09T12:24:10.968Z,72.40
2022-12-09T12:26:49.224Z,73.39
2022-12-09T12:29:27.816Z,74.24
2022-12-09T12:32:11.734Z,75.23
2022-12-09T12:35:09.862Z,75.18
2022-12-09T12:37:54.453Z,72.60
2022-12-09T12:40:34.681Z,73.41
2022-12-09T12:43:38.678Z,73.11
2022-12-09T12:46:22.333Z,74.94
2022-12-09T12:49:05.815Z,76.36
2022-12-09T12:51:53.867Z,76.34
2022-12-09T12:54:39.069Z,77.83
2022-12-09T12:57:17.140Z,76.87
2022-12-09T12:59:56.129Z,77.61
2022-12-09T13:02:38.917Z,77.09
2022-12-09T13:05:18.055Z,75.38
2022-12-09T13:07:59.033Z,77.49
2022-12-09T13:10:41.637Z,76.60
2022-12-09T13:13:19.264Z,77.43
2022-12-09T13:15:54.063Z,77.81
2022-12-09T13:18:28.171Z,78.06
2022-12-09T13:20:58.688Z,76.30
2022-12-09T13:23:50.454Z,77.19
2022-12-09T13:26:30.339Z,75.98
2022-12-09T13:29:13.669Z,75.89
2022-12-09T13:31:59.573Z,77.21
2022-12-09T13:34:35.197Z,77.00
2022-12-09T13:37:03.816Z,78.15
2022-12-09T13:40:00.903Z,78.63
2022-12-09T13:42:57.795Z,79.89
2022-12-09T13:45:31.521Z,77.89
2022-12-09T13:48:04.438Z,78.60
2022-12-09T13:50:39.909Z,77.67
2022-12-09T13:53:23.630Z,77.08
2022-12-09T13:55:56.822Z,77.93
2022-12-09T13:58:42.551Z,78.20
2022-12-09T14:01:20.523Z,79.04
2022-12-09T14:04:07.490Z,78.35
2022-12-09T14:06:41.221Z,78.31
2022-12-09T14:09:26.405Z,79.16
2022-12-09T14:11:57.293Z,78.95
2022-12-09T14:14:59.363Z,78.78
2022-12-09T14:18:02.742Z,79.68
2022-12-09T14:20:39.389Z,80.47
2022-12-09T14:23:18.413Z,79.21
2022-12-09T14:26:05.592Z,79.26
2022-12-09T14:28:56.283Z,79.28
2022-12-09T14:31:58.273Z,79.89
2022-12-09T14:34:45.342Z,79.47
2022-12-09T14:37:37.328Z,79.37
2022-12-09T14:40:31.000Z,78.90
2022-12-09T14:43:09.778Z,80.01
2022-12-09T14:45:50.387Z,79.04
2022-12-09T14:48:22.899Z,79.19
2022-12-09T14:51:10.020Z,78.91
2022-12-09T14:53:39.792Z,79.05
2022-12-09T14:56:09.029Z,78.29
2022-12-09T14:58:37.409Z,79.36
2022-12-09T15:01:08.435Z,79.05
2022-12-09T15:03:44.935Z,79.39
2022-12-09T15:06:20.051Z,79.68
2022-12-09T15:08:51.311Z,79.05
2022-12-09T15:11:23.815Z,79.20
2022-12-09T15:13:54.210Z,79.89
2022-12-09T15:16:27.491Z,80.18
2022-12-09T15:18:56.184Z,78.83
2022-12-09T15:21:31.798Z,79.25
2022-12-09T15:24:01.234Z,79.48
2022-12-09T15:26:32.834Z,78.55
2022-12-09T15:29:05.352Z,79.97
2022-12-09T15:31:38.413Z,80.55
2022-12-09T15:34:15.635Z,80.08
2022-12-09T15:36:48.364Z,80.84
2022-12-09T15:39:24.246Z,81.28
2022-12-09T15:42:09.826Z,81.62
2022-12-09T15:44:43.975Z,81.19
2022-12-09T15:47:20.656Z,81.29
2022-12-09T15:49:54.564Z,81.33
2022-12-09T15:52:27.295Z,80.90
2022-12-09T15:54:56.829Z,81.96
2022-12-09T15:57:26.003Z,80.91
2022-12-09T15:59:57.965Z,80.99
2022-12-09T16:02:32.209Z,80.86
2022-12-09T16:05:05.552Z,81.41
2022-12-09T16:07:34.780Z,81.26
2022-12-09T16:10:07.367Z,81.63
2022-12-09T16:12:36.950Z,81.18
2022-12-09T16:15:07.551Z,81.50
2022-12-09T16:17:52.958Z,81.60
2022-12-09T16:20:35.687Z,82.67
2022-12-09T16:23:05.600Z,82.83
2022-12-09T16:25:39.182Z,82.01
2022-12-09T16:28:09.127Z,81.97
2022-12-09T16:30:47.374Z,82.42
2022-12-09T16:33:19.943Z,82.84
2022-12-09T16:35:58.667Z,82.79
2022-12-09T16:38:27.610Z,82.94
2022-12-09T16:41:17.856Z,83.56
2022-12-09T16:43:58.468Z,83.60
2022-12-09T16:46:40.809Z,83.35
2022-12-09T16:49:10.586Z,83.54
2022-12-09T16:51:39.833Z,84.02
2022-12-09T16:54:19.689Z,83.91
2022-12-09T16:56:49.397Z,84.00
2022-12-09T16:59:17.601Z,84.28
2022-12-09T17:01:46.773Z,84.43
2022-12-09T17:04:21.772Z,84.71
2022-12-09T17:06:50.456Z,85.29
2022-12-09T17:09:19.515Z,85.70
2022-12-09T17:11:49.341Z,85.39
2022-12-09T17:14:18.384Z,85.52
2022-12-09T17:16:46.877Z,84.71
2022-12-09T17:19:17.556Z,84.82
2022-12-09T17:21:45.896Z,84.88
2022-12-09T17:24:14.594Z,84.98
2022-12-09T17:26:42.789Z,85.49
2022-12-09T17:29:11.250Z,85.99
2022-12-09T17:31:39.563Z,85.81
2022-12-09T17:34:08.215Z,86.50
2022-12-09T17:36:38.447Z,86.70
2022-12-09T17:39:07.917Z,86.48
2022-12-09T17:41:36.604Z,86.05
2022-12-09T17:44:05.896Z,86.24
2022-12-09T17:46:35.068Z,87.30
2022-12-09T17:49:04.126Z,86.71
2022-12-09T17:51:35.957Z,86.91
2022-12-09T17:54:07.095Z,86.48
2022-12-09T17:56:35.886Z,87.71
2022-12-09T17:59:07.552Z,86.89
2022-12-09T18:01:36.895Z,87.66
2022-12-09T18:04:10.501Z,87.10
2022-12-09T18:06:41.619Z,87.55
2022-12-09T18:09:14.710Z,87.59
2022-12-09T18:11:43.876Z,87.83
2022-12-09T18:14:12.727Z,87.54
2022-12-09T18:16:41.203Z,87.87
2022-12-09T18:19:15.592Z,88.21
2022-12-09T18:21:44.240Z,87.55
2022-12-09T18:24:14.505Z,87.66
2022-12-09T18:26:42.734Z,88.11
2022-12-09T18:29:11.874Z,88.31
2022-12-09T18:31:41.060Z,88.31
2022-12-09T18:34:09.636Z,87.80
2022-12-09T18:36:39.445Z,87.40
2022-12-09T18:39:08.799Z,88.37
2022-12-09T18:41:38.676Z,88.44
2022-12-09T18:44:09.110Z,88.04
2022-12-09T18:46:40.110Z,88.01
2022-12-09T18:49:11.663Z,87.69
2022-12-09T18:51:40.901Z,87.73
2022-12-09T18:54:10.089Z,87.45
2022-12-09T18:56:39.897Z,89.49
2022-12-09T18:59:09.481Z,87.67
2022-12-09T19:01:41.138Z,87.44
2022-12-09T19:04:14.466Z,87.23
2022-12-09T19:06:45.481Z,88.14
2022-12-09T19:09:16.645Z,87.97
2022-12-09T19:11:48.008Z,87.95
2022-12-09T19:14:17.720Z,87.45
2022-12-09T19:16:47.026Z,87.50
2022-12-09T19:19:17.158Z,87.96
2022-12-09T19:21:45.797Z,87.05
2022-12-09T19:24:16.260Z,88.40
2022-12-09T19:26:46.174Z,88.19
2022-12-09T19:29:17.894Z,88.72
2022-12-09T19:31:49.155Z,88.88
2022-12-09T19:34:19.081Z,88.44
2022-12-09T19:36:49.504Z,88.53
2022-12-09T19:39:19.739Z,88.28
2022-12-09T19:41:50.045Z,88.48
2022-12-09T19:44:44.284Z,87.88
2022-12-09T19:47:09.343Z,89.24
2022-12-09T19:49:41.003Z,88.21
2022-12-09T19:52:09.267Z,88.75
2022-12-09T19:54:37.989Z,88.37
2022-12-09T19:57:08.408Z,88.43
2022-12-09T19:59:37.776Z,87.94
2022-12-09T20:02:08.458Z,89.01
2022-12-09T20:04:52.099Z,89.40
2022-12-09T20:07:21.118Z,87.90
2022-12-09T20:09:50.088Z,88.58
2022-12-09T20:12:20.905Z,87.93
2022-12-09T20:14:49.292Z,87.40
2022-12-09T20:17:18.335Z,87.72
2022-12-09T20:19:46.490Z,88.59
2022-12-09T20:22:14.940Z,88.76
2022-12-09T20:24:44.463Z,88.49
2022-12-09T20:27:13.028Z,88.30
2022-12-09T20:29:42.833Z,87.91
2022-12-09T20:32:11.673Z,87.62
2022-12-09T20:34:40.542Z,88.00
2022-12-09T20:37:09.403Z,88.34
2022-12-09T20:39:38.807Z,88.67
2022-12-09T20:42:07.775Z,88.96
2022-12-09T20:44:36.206Z,88.32
2022-12-09T20:47:05.992Z,88.33
2022-12-09T20:49:34.552Z,88.10
2022-12-09T20:52:03.405Z,88.44
2022-12-09T20:54:31.941Z,88.78
2022-12-09T20:57:00.897Z,87.95
2022-12-09T20:59:29.112Z,87.46
2022-12-09T21:01:57.212Z,87.82
2022-12-09T21:04:26.957Z,87.23
2022-12-09T21:06:55.401Z,87.66
2022-12-09T21:09:27.268Z,87.39
2022-12-09T21:11:55.918Z,88.17
2022-12-09T21:14:29.429Z,87.74
2022-12-09T21:17:00.943Z,89.42
2022-12-09T21:19:32.527Z,88.33
2022-12-09T21:22:01.015Z,88.61
2022-12-09T21:24:29.496Z,88.45
2022-12-09T21:26:57.817Z,87.86
2022-12-09T21:29:31.631Z,88.01
2022-12-09T21:32:00.876Z,87.31
2022-12-09T21:34:30.340Z,87.66
2022-12-09T21:36:59.068Z,88.22
2022-12-09T21:39:28.763Z,87.06
2022-12-09T21:41:57.449Z,87.98
2022-12-09T21:44:27.526Z,87.39
2022-12-09T21:46:56.131Z,87.79
2022-12-09T21:49:24.486Z,88.01
2022-12-09T21:51:54.458Z,87.78
2022-12-09T21:54:22.896Z,88.06
2022-12-09T21:56:51.458Z,87.82
2022-12-09T21:59:19.988Z,87.93
2022-12-09T22:01:48.892Z,88.70
2022-12-09T22:04:18.022Z,88.21
2022-12-09T22:06:48.556Z,87.64
2022-12-09T22:09:20.885Z,87.84
2022-12-09T22:11:49.235Z,87.24
2022-12-09T22:14:17.843Z,87.06
2022-12-09T22:16:47.449Z,87.34
2022-12-09T22:19:18.335Z,87.81
2022-12-09T22:21:47.124Z,86.93
2022-12-09T22:24:15.969Z,87.23
2022-12-09T22:26:46.369Z,86.64
2022-12-09T22:29:16.119Z,87.12
2022-12-09T22:31:45.696Z,86.75
2022-12-09T22:34:16.006Z,87.49
2022-12-09T22:36:44.897Z,87.32
2022-12-09T22:39:14.718Z,87.45
2022-12-09T22:41:43.978Z,87.60
2022-12-09T22:44:15.268Z,87.67
2022-12-09T22:46:44.212Z,87.52
2022-12-09T22:49:14.785Z,87.46
2022-12-09T22:51:43.967Z,86.75
2022-12-09T22:54:12.822Z,87.20
2022-12-09T22:56:44.699Z,87.49
2022-12-09T22:59:15.612Z,87.09
2022-12-09T23:01:46.062Z,87.19
2022-12-09T23:04:19.068Z,86.55
2022-12-09T23:06:47.928Z,86.65
2022-12-09T23:09:21.341Z,86.64
2022-12-09T23:11:50.467Z,86.22
2022-12-09T23:14:21.078Z,87.32
2022-12-09T23:16:49.716Z,85.89
2022-12-09T23:19:17.968Z,85.52
2022-12-09T23:21:46.303Z,86.30
2022-12-09T23:24:24.104Z,86.03
2022-12-09T23:26:53.611Z,85.51
2022-12-09T23:29:23.767Z,86.07
2022-12-09T23:31:52.568Z,85.75
2022-12-09T23:34:21.615Z,85.62
2022-12-09T23:36:50.106Z,85.75
2022-12-09T23:39:19.604Z,85.55
2022-12-09T23:41:49.054Z,86.01
2022-12-09T23:44:19.372Z,86.35
2022-12-09T23:46:49.857Z,85.37
2022-12-09T23:49:18.683Z,85.44
2022-12-09T23:51:47.300Z,85.32
2022-12-09T23:54:17.930Z,85.25
2022-12-09T23:56:48.488Z,85.90
2022-12-09T23:59:18.095Z,84.90
